Time;durP1;ratioP1;P1;durP2;ratioP2;P2;SDS_P1;SDS_P2;PMS_P1;PMS_P2;Temp;Humidity;BMP_temperature;BMP_pressure;BME280_temperature;BME280_humidity;BME280_pressure;Samples;Min_cycle;Max_cycle;Signal;HPM_P1;HPM_P2
2023/08/29 00:01:23;;;;;;;10.48;9.10;;;;;;;15.01;100.00;100610.56;5008346;28;20132;-61
2023/08/29 00:03:51;;;;;;;11.25;9.15;;;;;;;14.97;100.00;100612.38;5003543;28;20091;-61
2023/08/29 00:06:16;;;;;;;9.43;7.53;;;;;;;14.96;100.00;100618.47;4999515;28;20558;-61
2023/08/29 00:08:41;;;;;;;12.25;9.07;;;;;;;14.94;100.00;100620.28;5008233;28;20041;-61
2023/08/29 00:11:07;;;;;;;8.80;8.00;;;;;;;14.93;100.00;100610.75;5011846;28;20041;-61
2023/08/29 00:13:32;;;;;;;10.30;7.85;;;;;;;14.92;100.00;100608.22;5010584;28;20406;-61
2023/08/29 00:15:58;;;;;;;10.90;9.35;;;;;;;14.92;100.00;100603.88;5008876;28;20034;-61
2023/08/29 00:18:23;;;;;;;10.23;8.98;;;;;;;14.92;100.00;100606.47;5011425;28;20601;-61
2023/08/29 00:20:49;;;;;;;10.50;7.82;;;;;;;14.92;100.00;100610.81;5004565;28;20115;-61
2023/08/29 00:23:14;;;;;;;8.40;7.60;;;;;;;14.93;100.00;100610.75;5017727;28;20029;-61
2023/08/29 00:25:40;;;;;;;12.13;8.82;;;;;;;14.96;100.00;100609.84;5008727;28;20042;-61
2023/08/29 00:28:06;;;;;;;9.40;8.40;;;;;;;15.00;100.00;100622.72;5010502;28;20048;-61
2023/08/29 00:30:41;;;;;;;11.10;9.57;;;;;;;15.04;100.00;100620.88;5017589;28;20029;-61
2023/08/29 00:33:08;;;;;;;8.85;7.95;;;;;;;15.07;100.00;100615.56;5008869;28;20052;-61
2023/08/29 00:35:34;;;;;;;8.65;7.78;;;;;;;15.09;100.00;100611.16;5008338;28;20802;-61
2023/08/29 00:37:59;;;;;;;8.98;7.90;;;;;;;15.11;100.00;100611.97;5007738;28;20041;-61
2023/08/29 00:40:31;;;;;;;10.82;8.30;;;;;;;15.14;100.00;100604.94;5015163;28;20042;-61
2023/08/29 00:43:01;;;;;;;10.52;9.27;;;;;;;15.16;100.00;100595.34;5010928;28;20041;-61
2023/08/29 00:45:30;;;;;;;11.30;9.73;;;;;;;15.18;100.00;100595.28;5013897;28;20124;-61
2023/08/29 00:47:56;;;;;;;9.25;8.18;;;;;;;15.20;100.00;100609.09;5012224;28;20053;-62
2023/08/29 00:50:22;;;;;;;10.52;9.52;;;;;;;15.20;100.00;100604.75;5008832;28;20066;-62
2023/08/29 00:52:47;;;;;;;14.43;10.05;;;;;;;15.20;100.00;100607.34;5008501;28;20088;-62
2023/08/29 00:55:14;;;;;;;10.82;9.63;;;;;;;15.19;100.00;100602.22;5015974;28;20033;-61
2023/08/29 00:57:39;;;;;;;12.68;9.75;;;;;;;15.19;100.00;100607.41;5010248;28;20057;-62
2023/08/29 01:00:06;;;;;;;12.43;10.90;;;;;;;15.17;100.00;100619.59;5009550;28;20621;-61
2023/08/29 01:02:31;;;;;;;13.52;10.35;;;;;;;15.16;100.00;100610.97;5004928;28;20038;-61
2023/08/29 01:04:57;;;;;;;15.27;10.90;;;;;;;15.16;100.00;100616.16;5007682;28;20081;-62
2023/08/29 01:07:23;;;;;;;10.52;9.35;;;;;;;15.15;100.00;100622.25;5008306;28;20042;-62
2023/08/29 01:09:49;;;;;;;10.25;8.93;;;;;;;15.16;99.96;100626.59;5006956;28;20034;-62
2023/08/29 01:12:17;;;;;;;10.27;9.25;;;;;;;15.19;100.00;100623.03;5006064;28;20040;-61
2023/08/29 01:14:49;;;;;;;11.98;8.93;;;;;;;15.19;100.00;100623.91;5011086;28;20077;-62
2023/08/29 01:17:25;;;;;;;12.48;10.73;;;;;;;15.20;99.98;100622.13;5013424;28;20037;-62
2023/08/29 01:19:52;;;;;;;11.98;9.48;;;;;;;15.21;99.98;100629.91;5012927;28;20038;-62
2023/08/29 01:22:41;;;;;;;11.80;9.35;;;;;;;15.22;100.00;100635.97;5004169;28;20039;-62
2023/08/29 01:25:07;;;;;;;12.13;9.40;;;;;;;15.25;100.00;100637.63;5007716;28;20049;-62
2023/08/29 01:27:34;;;;;;;11.15;8.75;;;;;;;15.25;100.00;100638.47;5007034;28;20029;-62
2023/08/29 01:30:01;;;;;;;10.23;8.85;;;;;;;15.26;99.78;100645.38;5009226;28;20446;-62
2023/08/29 01:32:27;;;;;;;12.05;10.13;;;;;;;15.29;99.78;100647.03;5004938;28;20052;-61
2023/08/29 01:34:53;;;;;;;12.57;9.63;;;;;;;15.31;99.80;100650.47;5008112;28;20034;-62
2023/08/29 01:37:19;;;;;;;10.38;8.60;;;;;;;15.33;100.00;100653.88;5013303;28;20063;-61
2023/08/29 01:39:44;;;;;;;10.15;9.13;;;;;;;15.33;99.87;100653.88;5009016;28;20421;-63
2023/08/29 01:42:10;;;;;;;11.85;10.27;;;;;;;15.33;99.79;100656.47;5008866;28;20029;-62
2023/08/29 01:44:35;;;;;;;13.93;11.63;;;;;;;15.31;99.76;100656.53;5010248;28;20038;-64
2023/08/29 01:47:00;;;;;;;14.20;11.40;;;;;;;15.35;99.58;100673.75;5009725;28;20033;-63
2023/08/29 01:49:27;;;;;;;12.55;9.57;;;;;;;15.37;99.60;100674.59;5008126;28;20045;-62
2023/08/29 01:51:52;;;;;;;11.35;10.15;;;;;;;15.38;99.76;100668.44;5010972;28;20037;-62
2023/08/29 01:54:18;;;;;;;11.50;9.50;;;;;;;15.39;99.99;100677.97;5010021;28;20048;-62
2023/08/29 01:56:45;;;;;;;13.32;11.40;;;;;;;15.39;99.99;100682.34;5007895;28;20037;-61
2023/08/29 01:59:10;;;;;;;13.15;11.40;;;;;;;15.38;99.95;100686.69;5006644;28;20503;-62
2023/08/29 02:01:35;;;;;;;13.63;12.15;;;;;;;15.37;99.15;100685.00;5008383;28;20042;-62
2023/08/29 02:04:01;;;;;;;14.43;11.77;;;;;;;15.36;99.30;100672.88;5013545;28;20065;-62
2023/08/29 02:06:26;;;;;;;15.05;12.27;;;;;;;15.36;98.99;100680.69;5009662;28;20498;-62
2023/08/29 02:08:52;;;;;;;18.08;13.00;;;;;;;15.34;99.44;100676.41;5010777;28;20439;-62
2023/08/29 02:11:17;;;;;;;15.18;12.13;;;;;;;15.32;99.13;100679.03;5011291;28;20040;-61
2023/08/29 02:13:42;;;;;;;11.55;10.40;;;;;;;15.33;99.55;100674.69;5009612;28;20587;-62
2023/08/29 02:16:08;;;;;;;14.25;11.32;;;;;;;15.30;99.59;100680.84;5019208;28;20120;-62
2023/08/29 02:18:33;;;;;;;13.55;12.13;;;;;;;15.31;99.91;100673.91;5013338;28;20029;-62
2023/08/29 02:20:59;;;;;;;12.95;11.57;;;;;;;15.31;99.67;100666.09;5009204;28;20029;-62
2023/08/29 02:23:25;;;;;;;12.80;11.27;;;;;;;15.31;99.53;100660.88;5010663;28;20072;-62
2023/08/29 02:26:00;;;;;;;14.07;12.50;;;;;;;15.31;99.78;100653.06;5011984;28;20546;-61
2023/08/29 02:28:26;;;;;;;15.13;12.07;;;;;;;15.29;99.77;100652.22;5014307;28;20049;-62
2023/08/29 02:30:51;;;;;;;15.25;12.75;;;;;;;15.29;99.73;100649.63;5014466;28;20043;-62
2023/08/29 02:33:16;;;;;;;17.27;13.55;;;;;;;15.30;100.00;100651.34;5022661;28;20414;-61
2023/08/29 02:35:42;;;;;;;14.00;12.05;;;;;;;15.26;100.00;100641.91;5012403;28;20179;-62
2023/08/29 02:38:07;;;;;;;15.90;12.55;;;;;;;15.24;99.78;100639.38;5012898;28;20092;-62
2023/08/29 02:40:33;;;;;;;12.68;11.15;;;;;;;15.25;100.00;100637.63;5009493;28;20045;-62
2023/08/29 02:42:58;;;;;;;15.52;12.50;;;;;;;15.26;100.00;100628.88;5013400;28;21348;-61
2023/08/29 02:45:23;;;;;;;14.35;11.55;;;;;;;15.24;100.00;100636.75;5007076;28;20108;-62
2023/08/29 02:47:49;;;;;;;16.45;13.30;;;;;;;15.22;100.00;100633.34;5009828;28;20494;-62
2023/08/29 02:50:14;;;;;;;17.63;12.85;;;;;;;15.22;100.00;100625.56;5007303;28;20458;-61
2023/08/29 02:52:40;;;;;;;17.25;13.88;;;;;;;15.20;100.00;100617.75;5008998;28;20037;-61
2023/08/29 02:55:06;;;;;;;15.18;13.32;;;;;;;15.20;100.00;100614.31;5014261;28;20106;-62
2023/08/29 02:57:31;;;;;;;16.65;14.40;;;;;;;15.17;100.00;100604.84;5007428;28;20144;-62
2023/08/29 02:59:58;;;;;;;17.40;14.68;;;;;;;15.15;100.00;100608.38;5012451;28;20030;-62
2023/08/29 03:02:23;;;;;;;17.63;14.52;;;;;;;15.14;100.00;100611.88;5010387;28;20061;-62
2023/08/29 03:04:48;;;;;;;17.20;14.57;;;;;;;15.12;100.00;100611.09;5009646;28;20064;-61
2023/08/29 03:07:14;;;;;;;14.23;11.50;;;;;;;15.11;100.00;100604.16;5004331;28;20044;-61
2023/08/29 03:09:39;;;;;;;17.55;14.32;;;;;;;15.12;100.00;100603.28;5009252;28;20501;-61
2023/08/29 03:12:05;;;;;;;13.25;11.95;;;;;;;15.10;100.00;100605.94;5012532;28;20778;-61
2023/08/29 03:14:30;;;;;;;11.55;10.35;;;;;;;15.09;100.00;100600.75;5017014;28;20033;-62
2023/08/29 03:16:56;;;;;;;17.40;13.10;;;;;;;15.08;100.00;100599.03;5014037;28;20675;-61
2023/08/29 03:19:21;;;;;;;13.48;11.98;;;;;;;15.06;100.00;100595.63;5009043;28;20060;-61
2023/08/29 03:21:47;;;;;;;15.88;12.52;;;;;;;15.05;100.00;100594.78;5007309;28;20171;-61
2023/08/29 03:24:12;;;;;;;15.30;12.65;;;;;;;15.06;100.00;100590.44;5015787;28;20036;-61
2023/08/29 03:26:37;;;;;;;13.90;11.90;;;;;;;15.05;100.00;100584.38;5010877;28;20558;-61
2023/08/29 03:29:03;;;;;;;18.98;13.73;;;;;;;15.05;100.00;100584.38;5010314;28;20060;-61
2023/08/29 03:31:28;;;;;;;18.25;14.35;;;;;;;15.06;100.00;100583.47;5011973;28;20798;-61
2023/08/29 03:33:54;;;;;;;14.80;13.20;;;;;;;15.06;100.00;100580.88;5005808;28;20049;-62
2023/08/29 03:36:20;;;;;;;14.82;12.95;;;;;;;15.05;100.00;100586.13;5001716;28;20278;-62
2023/08/29 03:38:46;;;;;;;16.30;11.80;;;;;;;15.03;100.00;100588.78;5007111;28;20041;-62
2023/08/29 03:41:11;;;;;;;17.55;13.07;;;;;;;15.04;100.00;100584.44;5019552;28;20473;-62
2023/08/29 03:43:37;;;;;;;13.18;11.30;;;;;;;15.02;100.00;100581.84;5012077;28;20068;-62
2023/08/29 03:46:06;;;;;;;13.10;11.23;;;;;;;15.01;100.00;100585.38;5007025;28;20037;-61
2023/08/29 03:48:33;;;;;;;17.65;14.85;;;;;;;15.01;100.00;100581.91;5006522;28;20717;-62
2023/08/29 03:51:01;;;;;;;13.93;12.27;;;;;;;14.99;100.00;100570.72;5006336;28;20050;-61
2023/08/29 03:53:26;;;;;;;14.98;13.00;;;;;;;14.99;100.00;100579.34;5005160;28;20061;-61
2023/08/29 03:55:52;;;;;;;18.77;13.50;;;;;;;15.00;100.00;100580.19;5012073;28;20033;-62
2023/08/29 03:58:17;;;;;;;14.75;12.82;;;;;;;14.99;100.00;100578.53;5010360;28;20037;-62
2023/08/29 04:00:43;;;;;;;13.38;11.20;;;;;;;14.99;100.00;100583.72;5009414;28;20034;-62
2023/08/29 04:03:09;;;;;;;16.58;12.82;;;;;;;14.99;100.00;100583.72;5007703;28;20108;-62
2023/08/29 04:05:36;;;;;;;18.83;15.02;;;;;;;14.95;100.00;100588.16;5007135;28;20038;-62
2023/08/29 04:08:03;;;;;;;16.27;13.80;;;;;;;14.94;100.00;100596.00;5015863;28;20041;-62
2023/08/29 04:10:28;;;;;;;20.23;16.40;;;;;;;14.93;100.00;100594.31;5010370;28;20068;-61
2023/08/29 04:12:54;;;;;;;19.00;15.60;;;;;;;14.94;100.00;100601.19;5013276;28;20041;-61
2023/08/29 04:15:19;;;;;;;18.50;15.55;;;;;;;14.93;100.00;100594.31;5006306;28;20103;-62
2023/08/29 04:17:45;;;;;;;18.48;14.00;;;;;;;14.94;100.00;100596.00;5008452;28;20084;-61
2023/08/29 04:20:12;;;;;;;18.15;14.98;;;;;;;14.92;100.00;100595.19;5009328;28;20025;-62
2023/08/29 04:22:38;;;;;;;20.77;15.68;;;;;;;14.92;100.00;100593.44;5009976;28;20096;-62
2023/08/29 04:25:07;;;;;;;17.70;15.07;;;;;;;14.92;100.00;100605.59;5009244;28;20040;-62
2023/08/29 04:27:34;;;;;;;16.45;14.38;;;;;;;14.93;100.00;100607.31;5011640;28;20033;-63
2023/08/29 04:29:59;;;;;;;16.67;13.93;;;;;;;14.91;100.00;100599.53;5021729;28;20418;-62
2023/08/29 04:32:24;;;;;;;24.20;19.05;;;;;;;14.91;100.00;100596.94;5016243;28;20132;-61
2023/08/29 04:34:50;;;;;;;20.27;15.85;;;;;;;14.90;100.00;100597.81;5011690;28;20088;-62
2023/08/29 04:37:16;;;;;;;23.20;17.02;;;;;;;14.91;100.00;100583.94;5005974;28;20041;-61
2023/08/29 04:39:41;;;;;;;22.20;18.25;;;;;;;14.92;100.00;100587.38;5006482;28;20044;-61
2023/08/29 04:42:06;;;;;;;25.20;19.23;;;;;;;14.91;100.00;100583.94;5019045;28;20037;-61
2023/08/29 04:44:33;;;;;;;19.58;16.75;;;;;;;14.92;100.00;100587.38;5007942;28;20034;-61
2023/08/29 04:46:59;;;;;;;20.67;16.80;;;;;;;14.93;100.00;100584.72;5017541;28;20084;-61
2023/08/29 04:49:24;;;;;;;23.60;17.30;;;;;;;14.93;100.00;100584.72;5006751;28;20129;-62
2023/08/29 04:51:49;;;;;;;19.48;16.42;;;;;;;14.94;100.00;100580.38;5009063;28;20052;-62
2023/08/29 04:54:15;;;;;;;19.30;15.73;;;;;;;14.94;100.00;100577.78;5008969;28;20065;-61
2023/08/29 04:56:40;;;;;;;20.45;17.20;;;;;;;14.95;100.00;100582.94;5012227;28;20033;-62
2023/08/29 04:59:05;;;;;;;23.00;17.75;;;;;;;14.97;100.00;100586.34;5022608;28;20064;-62
2023/08/29 05:01:31;;;;;;;24.70;17.52;;;;;;;14.99;100.00;100584.56;5030231;28;20127;-62
2023/08/29 05:03:56;;;;;;;21.30;17.17;;;;;;;15.01;100.00;100595.78;5016574;28;20058;-64
2023/08/29 05:06:21;;;;;;;21.27;17.92;;;;;;;15.02;100.00;100600.06;5024809;28;20033;-62
2023/08/29 05:08:47;;;;;;;20.10;15.02;;;;;;;15.04;100.00;100600.06;5025150;28;20680;-63
2023/08/29 05:11:12;;;;;;;17.48;14.75;;;;;;;15.04;100.00;100592.25;5019273;28;20124;-62
2023/08/29 05:13:38;;;;;;;20.02;15.95;;;;;;;15.05;100.00;100593.91;5015763;28;20080;-62
2023/08/29 05:16:03;;;;;;;15.13;13.10;;;;;;;15.07;100.00;100602.56;5018886;28;20068;-62
2023/08/29 05:18:29;;;;;;;20.35;17.17;;;;;;;15.10;100.00;100605.94;5015535;28;20104;-62
2023/08/29 05:20:56;;;;;;;17.85;15.85;;;;;;;15.13;100.00;100603.25;5019455;28;20017;-62
2023/08/29 05:23:21;;;;;;;20.00;15.80;;;;;;;15.17;100.00;100597.03;5014598;28;20471;-62
2023/08/29 05:25:47;;;;;;;21.92;16.30;;;;;;;15.21;100.00;100606.47;5030393;28;20051;-62
2023/08/29 05:28:12;;;;;;;17.45;15.02;;;;;;;15.24;100.00;100595.09;5017141;28;20036;-62
2023/08/29 05:30:37;;;;;;;20.90;17.00;;;;;;;15.27;100.00;100597.59;5030787;28;20618;-62
2023/08/29 05:33:03;;;;;;;22.25;17.20;;;;;;;15.30;100.00;100601.88;5001540;28;20029;-62
2023/08/29 05:35:28;;;;;;;21.90;17.17;;;;;;;15.32;100.00;100598.31;5007738;28;20053;-62
2023/08/29 05:37:54;;;;;;;22.70;17.52;;;;;;;15.34;100.00;100598.28;5014756;28;20046;-62
2023/08/29 05:40:19;;;;;;;20.77;17.55;;;;;;;15.37;100.00;100596.44;5007451;28;20057;-62
2023/08/29 05:42:45;;;;;;;18.20;15.07;;;;;;;15.43;100.00;100596.25;5008170;28;20582;-61
2023/08/29 05:45:10;;;;;;;25.02;18.00;;;;;;;15.45;100.00;100599.66;5011424;28;20037;-61
2023/08/29 05:47:35;;;;;;;26.35;19.45;;;;;;;15.46;100.00;100601.38;5007483;28;20494;-62
2023/08/29 05:50:01;;;;;;;23.70;18.35;;;;;;;15.46;100.00;100597.91;5013291;28;20397;-62
2023/08/29 05:52:26;;;;;;;21.27;16.38;;;;;;;15.50;100.00;100591.69;5007801;28;20120;-61
2023/08/29 05:54:52;;;;;;;28.23;18.58;;;;;;;15.52;100.00;100602.94;5010043;28;20087;-61
2023/08/29 05:57:17;;;;;;;26.50;18.92;;;;;;;15.56;100.00;100600.16;5007063;28;20068;-62
2023/08/29 05:59:42;;;;;;;25.08;17.33;;;;;;;15.60;100.00;100604.41;5014957;28;20061;-62
2023/08/29 06:02:07;;;;;;;23.10;18.63;;;;;;;15.67;100.00;100597.28;5023997;28;20077;-61
2023/08/29 06:04:33;;;;;;;25.13;17.73;;;;;;;15.73;100.00;100605.72;5012929;28;20087;-61
2023/08/29 06:06:59;;;;;;;24.85;17.17;;;;;;;15.81;100.00;100605.50;5007478;28;20410;-62
2023/08/29 06:09:24;;;;;;;24.35;16.90;;;;;;;15.84;99.22;100605.41;5009723;28;20173;-62
2023/08/29 06:11:49;;;;;;;21.40;15.95;;;;;;;15.89;98.93;100607.84;5012701;28;20267;-62
2023/08/29 06:14:15;;;;;;;24.85;17.88;;;;;;;15.90;98.28;100601.72;5009896;28;20089;-61
2023/08/29 06:16:40;;;;;;;22.48;16.65;;;;;;;15.94;97.78;100605.97;5010973;28;20090;-61
2023/08/29 06:19:05;;;;;;;22.05;17.10;;;;;;;15.94;97.28;100603.34;5008192;28;20041;-61
2023/08/29 06:21:31;;;;;;;29.67;18.48;;;;;;;15.91;97.26;100600.84;5013185;28;20045;-62
2023/08/29 06:23:56;;;;;;;25.95;18.65;;;;;;;15.95;97.49;100605.03;5015029;28;20425;-62
2023/08/29 06:26:21;;;;;;;23.77;18.15;;;;;;;15.91;97.08;100608.66;5011578;28;20100;-62
2023/08/29 06:28:47;;;;;;;22.42;16.42;;;;;;;15.98;97.53;100615.38;5012247;28;20045;-61
2023/08/29 06:31:13;;;;;;;27.65;18.60;;;;;;;15.97;96.82;100611.91;5006597;28;20034;-62
2023/08/29 06:33:39;;;;;;;23.58;18.05;;;;;;;16.02;97.00;100609.16;5003939;28;20084;-61
2023/08/29 06:36:05;;;;;;;26.77;17.52;;;;;;;16.10;96.87;100605.38;5006669;28;20033;-62
2023/08/29 06:38:31;;;;;;;22.77;18.30;;;;;;;16.16;96.88;100612.16;5011131;28;20731;-62
2023/08/29 06:40:57;;;;;;;21.45;16.48;;;;;;;16.27;96.86;100608.28;5011077;28;20514;-62
2023/08/29 06:43:23;;;;;;;26.40;19.80;;;;;;;16.22;96.14;100611.94;5009083;28;20052;-62
2023/08/29 06:45:49;;;;;;;23.33;17.88;;;;;;;16.28;95.87;100606.53;5004538;28;20111;-62
2023/08/29 06:48:15;;;;;;;25.70;19.35;;;;;;;16.29;95.91;100616.88;5018190;28;20094;-61
2023/08/29 06:50:40;;;;;;;31.15;19.23;;;;;;;16.32;95.75;100614.16;5018244;28;20114;-62
2023/08/29 06:53:05;;;;;;;28.13;20.13;;;;;;;16.37;95.77;100615.78;5017769;28;20061;-62
2023/08/29 06:55:34;;;;;;;26.48;19.38;;;;;;;16.39;95.85;100614.81;5010767;28;20042;-62
2023/08/29 06:58:06;;;;;;;31.60;20.65;;;;;;;16.39;95.66;100612.22;5007457;28;20549;-62
2023/08/29 07:00:32;;;;;;;23.88;17.83;;;;;;;16.45;95.62;100608.53;5018947;28;20365;-62
2023/08/29 07:02:58;;;;;;;26.08;19.10;;;;;;;16.49;95.78;100603.19;5016272;28;20021;-62
2023/08/29 07:05:24;;;;;;;31.02;20.58;;;;;;;16.53;95.27;100604.78;5013421;28;20327;-62
2023/08/29 07:07:49;;;;;;;24.20;18.67;;;;;;;16.58;94.94;100608.06;5008925;28;20042;-62
2023/08/29 07:10:15;;;;;;;27.85;20.73;;;;;;;16.68;94.99;100604.22;5023514;28;20037;-62
2023/08/29 07:12:40;;;;;;;24.27;18.38;;;;;;;16.72;94.59;100599.72;5016759;28;20044;-62
2023/08/29 07:15:06;;;;;;;24.50;19.42;;;;;;;16.79;94.76;100596.03;5007852;28;20024;-62
2023/08/29 07:17:31;;;;;;;24.58;18.35;;;;;;;16.76;94.20;100599.59;5020534;28;20178;-62
2023/08/29 07:19:57;;;;;;;32.88;21.23;;;;;;;16.79;93.90;100590.81;5007707;28;20045;-62
2023/08/29 07:22:22;;;;;;;24.88;20.35;;;;;;;16.82;93.72;100595.94;5012582;28;20541;-62
2023/08/29 07:24:48;;;;;;;27.08;19.30;;;;;;;16.90;94.01;100601.72;5011759;28;20041;-62
2023/08/29 07:27:13;;;;;;;29.15;21.23;;;;;;;16.91;93.47;100595.59;5009541;28;20126;-64
2023/08/29 07:29:41;;;;;;;28.08;20.70;;;;;;;16.98;93.42;100604.88;5015650;28;20040;-63
2023/08/29 07:32:07;;;;;;;31.80;22.42;;;;;;;17.07;93.14;100607.16;5022627;28;20041;-62
2023/08/29 07:34:32;;;;;;;32.60;23.33;;;;;;;17.10;92.84;100599.22;5013684;28;20747;-62
2023/08/29 07:36:57;;;;;;;28.02;23.27;;;;;;;17.07;92.75;100601.94;5012228;28;20049;-62
2023/08/29 07:39:24;;;;;;;29.13;24.00;;;;;;;17.15;93.03;100604.28;5001746;28;20033;-62
2023/08/29 07:41:50;;;;;;;31.42;24.58;;;;;;;17.21;92.62;100604.03;5009282;28;20045;-62
2023/08/29 07:44:15;;;;;;;36.05;26.95;;;;;;;17.11;92.84;100607.91;5017386;28;20557;-63
2023/08/29 07:46:40;;;;;;;38.05;25.90;;;;;;;17.16;93.22;100606.81;5011870;28;20053;-62
2023/08/29 07:49:13;;;;;;;34.03;25.52;;;;;;;17.20;92.49;100610.16;5018677;28;20099;-61
2023/08/29 07:51:39;;;;;;;32.78;25.77;;;;;;;17.23;92.82;100610.03;5008265;28;20033;-62
2023/08/29 07:54:05;;;;;;;35.10;25.15;;;;;;;17.17;92.55;100616.38;5008115;28;20049;-62
2023/08/29 07:56:30;;;;;;;28.50;23.45;;;;;;;17.25;93.10;100609.06;5003486;28;20132;-62
2023/08/29 07:58:55;;;;;;;32.28;25.38;;;;;;;17.29;92.06;100615.03;5007826;28;20038;-62
2023/08/29 08:01:21;;;;;;;38.90;26.80;;;;;;;17.20;92.29;100613.63;5003960;28;20053;-62
2023/08/29 08:03:47;;;;;;;40.33;28.33;;;;;;;17.33;92.27;100614.84;4992273;28;20037;-62
2023/08/29 08:06:12;;;;;;;29.58;24.83;;;;;;;17.41;91.89;100618.03;4993002;28;20530;-62
2023/08/29 08:08:37;;;;;;;36.03;28.13;;;;;;;17.47;91.12;100614.34;5008205;28;20045;-62
2023/08/29 08:11:04;;;;;;;49.42;36.70;;;;;;;17.45;90.26;100610.09;5024769;28;20037;-62
2023/08/29 08:13:30;;;;;;;47.35;36.05;;;;;;;17.41;91.09;100618.03;5011202;28;20451;-62
2023/08/29 08:15:55;;;;;;;50.08;38.03;;;;;;;17.52;90.64;100617.63;5011310;28;20056;-62
2023/08/29 08:18:21;;;;;;;45.83;34.40;;;;;;;17.67;91.22;100622.25;5006583;28;20029;-62
2023/08/29 08:20:46;;;;;;;55.25;40.47;;;;;;;17.68;89.47;100618.72;5010614;28;20034;-65
2023/08/29 08:23:12;;;;;;;49.22;37.22;;;;;;;17.72;89.60;100622.91;5011409;28;20038;-62
2023/08/29 08:25:37;;;;;;;64.28;42.28;;;;;;;17.82;89.33;100631.22;5006167;28;20038;-62
2023/08/29 08:28:05;;;;;;;59.83;41.30;;;;;;;17.82;88.85;100628.63;5009530;28;20128;-62
2023/08/29 08:30:31;;;;;;;61.90;43.50;;;;;;;17.82;88.92;100637.31;5013548;28;20029;-62
2023/08/29 08:32:56;;;;;;;73.35;47.08;;;;;;;17.87;88.31;100630.16;5010875;28;20037;-63
2023/08/29 08:35:21;;;;;;;80.15;50.97;;;;;;;17.94;87.75;100639.47;5009227;28;20029;-62
2023/08/29 08:37:47;;;;;;;76.57;49.00;;;;;;;18.02;87.63;100631.31;5017477;28;20038;-62
2023/08/29 08:40:15;;;;;;;76.25;48.40;;;;;;;18.04;87.16;100637.34;5025501;28;20033;-62
2023/08/29 08:42:40;;;;;;;78.68;51.00;;;;;;;18.15;87.10;100639.50;5015269;28;20117;-61
2023/08/29 08:45:07;;;;;;;80.38;49.33;;;;;;;18.20;86.74;100634.91;5015765;28;20046;-62
2023/08/29 08:47:35;;;;;;;82.45;49.80;;;;;;;18.22;86.52;100643.59;5012412;28;20061;-61
2023/08/29 08:50:00;;;;;;;81.15;50.92;;;;;;;18.27;86.24;100632.00;5012699;28;20790;-62
2023/08/29 08:52:27;;;;;;;78.63;51.05;;;;;;;18.36;85.82;100629.00;5015227;28;20132;-62
2023/08/29 08:54:52;;;;;;;84.25;51.92;;;;;;;18.29;84.97;100635.41;5031513;28;20124;-62
2023/08/29 08:57:18;;;;;;;72.65;48.95;;;;;;;18.35;85.12;100627.28;5017238;28;20034;-62
2023/08/29 08:59:43;;;;;;;79.72;51.72;;;;;;;18.38;84.24;100629.78;5021938;28;20072;-63
2023/08/29 09:02:13;;;;;;;77.68;49.40;;;;;;;18.40;84.13;100624.50;5009388;28;20049;-62
2023/08/29 09:04:38;;;;;;;76.53;48.42;;;;;;;18.56;83.61;100629.91;5009439;28;20037;-62
2023/08/29 09:07:04;;;;;;;73.63;48.22;;;;;;;18.59;83.30;100633.25;4998341;28;20061;-62
2023/08/29 09:09:29;;;;;;;71.43;47.75;;;;;;;18.67;83.09;100638.16;5012295;28;20064;-62
2023/08/29 09:11:57;;;;;;;77.65;49.78;;;;;;;18.75;81.95;100628.19;5011061;28;20104;-62
2023/08/29 09:14:24;;;;;;;74.07;47.08;;;;;;;18.70;81.59;100624.94;5017449;28;20049;-62
2023/08/29 09:16:54;;;;;;;72.65;49.08;;;;;;;18.75;81.55;100630.81;5018371;28;20037;-62
2023/08/29 09:19:20;;;;;;;72.35;46.85;;;;;;;18.89;81.72;100624.06;5017599;28;20071;-62
2023/08/29 09:21:45;;;;;;;68.40;46.28;;;;;;;19.03;81.36;100618.19;5019387;28;20041;-62
2023/08/29 09:24:14;;;;;;;68.63;45.85;;;;;;;19.10;80.94;100619.63;5017353;28;20039;-62
2023/08/29 09:26:41;;;;;;;61.47;43.42;;;;;;;19.26;80.48;100623.28;5005112;28;20118;-62
2023/08/29 09:29:17;;;;;;;64.80;44.80;;;;;;;19.42;78.99;100605.03;5009177;28;20041;-62
2023/08/29 09:31:43;;;;;;;62.55;44.20;;;;;;;19.50;78.60;100610.78;5014365;28;20367;-62
2023/08/29 09:34:09;;;;;;;61.10;42.83;;;;;;;19.48;78.37;100613.47;5010994;28;20933;-62
2023/08/29 09:36:35;;;;;;;64.25;43.33;;;;;;;19.49;78.18;100612.56;5016320;28;20022;-62
2023/08/29 09:39:02;;;;;;;57.25;40.65;;;;;;;19.63;77.54;100606.63;5022716;28;20072;-62
2023/08/29 09:41:27;;;;;;;56.92;39.33;;;;;;;19.58;76.88;100604.25;5017099;28;20065;-62
2023/08/29 09:43:52;;;;;;;56.80;40.30;;;;;;;19.62;76.78;100602.34;5018637;28;20687;-62
2023/08/29 09:46:25;;;;;;;48.38;34.53;;;;;;;19.72;76.96;100611.44;5014865;28;20702;-62
2023/08/29 09:48:55;;;;;;;51.65;37.95;;;;;;;19.84;76.64;100596.91;5014483;28;20403;-62
2023/08/29 09:51:22;;;;;;;49.13;36.67;;;;;;;19.80;75.64;100596.22;5009360;28;20021;-62
2023/08/29 09:53:50;;;;;;;50.88;35.83;;;;;;;19.80;76.18;100601.44;5014021;28;20054;-62
2023/08/29 09:56:19;;;;;;;53.80;35.95;;;;;;;19.89;75.54;100595.75;5022394;28;20869;-62
2023/08/29 09:58:47;;;;;;;49.28;34.40;;;;;;;20.02;75.19;100594.25;5014251;28;20041;-63
2023/08/29 10:01:14;;;;;;;51.85;36.38;;;;;;;20.03;75.12;100590.69;5017532;28;20037;-62
2023/08/29 10:03:40;;;;;;;47.83;36.08;;;;;;;20.01;75.10;100589.91;5028268;28;20509;-63
2023/08/29 10:06:10;;;;;;;47.42;34.55;;;;;;;20.04;74.28;100581.88;5015522;28;20088;-63
2023/08/29 10:08:46;;;;;;;41.08;29.55;;;;;;;19.91;72.43;100557.19;5009865;28;20045;-63
2023/08/29 10:11:12;;;;;;;37.67;26.73;;;;;;;20.10;72.41;100557.09;5013695;28;20036;-62
2023/08/29 10:13:39;;;;;;;32.25;23.25;;;;;;;20.23;70.93;100542.44;5009925;28;20046;-62
2023/08/29 10:16:05;;;;;;;33.17;24.23;;;;;;;20.09;70.33;100540.53;5020036;28;20033;-63
2023/08/29 10:18:33;;;;;;;30.92;22.55;;;;;;;20.32;70.29;100543.75;5015894;28;20033;-63
2023/08/29 10:21:00;;;;;;;32.17;22.20;;;;;;;20.30;69.91;100548.22;5016919;28;20029;-62
2023/08/29 10:23:27;;;;;;;27.00;20.63;;;;;;;20.51;69.67;100541.88;5016775;28;20583;-63
2023/08/29 10:25:55;;;;;;;28.50;21.50;;;;;;;20.66;69.71;100546.31;5007328;28;20041;-62
2023/08/29 10:28:22;;;;;;;27.27;19.25;;;;;;;20.60;67.92;100518.56;5003893;28;20041;-63
2023/08/29 10:30:53;;;;;;;26.10;20.48;;;;;;;20.49;67.38;100520.06;5012641;28;20042;-63
2023/08/29 10:33:19;;;;;;;30.45;22.58;;;;;;;20.44;69.14;100543.09;5015539;28;20042;-63
2023/08/29 10:35:48;;;;;;;28.52;21.10;;;;;;;20.70;68.74;100542.59;5010152;28;20415;-62
2023/08/29 10:38:15;;;;;;;20.95;13.75;;;;;;;20.15;67.92;100531.50;5013345;28;20106;-63
2023/08/29 10:40:41;;;;;;;19.40;13.63;;;;;;;20.23;67.78;100531.09;5010312;28;20076;-63
2023/08/29 10:43:20;;;;;;;19.60;12.07;;;;;;;20.32;66.41;100507.84;5018219;28;20029;-63
2023/08/29 10:45:54;;;;;;;27.38;16.65;;;;;;;20.13;67.80;100536.81;5011434;28;20475;-63
2023/08/29 10:48:21;;;;;;;19.63;14.07;;;;;;;20.35;66.29;100507.69;5007579;28;20057;-63
2023/08/29 10:51:09;;;;;;;21.52;16.13;;;;;;;20.47;66.68;100506.19;5010464;28;20025;-62
2023/08/29 10:53:38;;;;;;;19.88;15.07;;;;;;;20.43;66.58;100510.75;5013949;28;20046;-63
2023/08/29 10:56:07;;;;;;;24.02;17.38;;;;;;;20.54;67.37;100529.41;5014672;28;20493;-62
2023/08/29 10:58:41;;;;;;;26.98;18.77;;;;;;;20.41;67.54;100524.88;5008608;28;20040;-62
2023/08/29 11:01:27;;;;;;;26.50;18.17;;;;;;;20.60;67.43;100517.75;5022034;28;20375;-62
2023/08/29 11:03:52;;;;;;;21.48;16.90;;;;;;;20.98;66.09;100499.94;5011807;28;20113;-62